createdAt,value
2018-01-01T00:02:23.935Z,125.30
2018-01-01T00:04:52.665Z,148.27
2018-01-01T00:07:21.336Z,127.22
2018-01-01T00:09:50.019Z,125.55
2018-01-01T00:12:18.893Z,89.50
2018-01-01T00:14:47.602Z,108.95
2018-01-01T00:17:15.638Z,113.57
2018-01-01T00:19:44.371Z,94.90
2018-01-01T00:22:13.037Z,83.37
2018-01-01T00:24:41.720Z,82.00
2018-01-01T00:27:10.413Z,81.65
2018-01-01T00:29:39.101Z,79.80
2018-01-01T00:32:07.769Z,78.87
2018-01-01T00:34:36.532Z,72.00
2018-01-01T00:37:05.213Z,71.82
2018-01-01T00:39:33.884Z,55.55
2018-01-01T00:42:03.394Z,61.95
2018-01-01T00:44:32.869Z,64.05
2018-01-01T00:47:02.322Z,59.35
2018-01-01T00:49:31.076Z,54.53
2018-01-01T00:51:59.757Z,53.75
2018-01-01T00:54:28.443Z,61.08
2018-01-01T00:56:57.151Z,48.35
2018-01-01T00:59:26.597Z,45.00
2018-01-01T01:01:55.256Z,28.10
2018-01-01T01:04:23.744Z,17.12
2018-01-01T01:06:52.392Z,13.73
2018-01-01T01:09:21.098Z,17.02
2018-01-01T01:11:50.510Z,9.98
2018-01-01T01:14:19.989Z,7.57
2018-01-01T01:16:49.048Z,9.75
2018-01-01T01:19:17.724Z,10.23
2018-01-01T01:21:46.384Z,4.03
2018-01-01T01:24:15.837Z,5.03
2018-01-01T01:26:44.572Z,5.25
2018-01-01T01:29:14.011Z,7.78
2018-01-01T01:31:42.672Z,3.78
2018-01-01T01:34:12.168Z,3.83
2018-01-01T01:36:41.584Z,3.97
2018-01-01T01:39:11.013Z,4.90
2018-01-01T01:41:40.483Z,4.90
2018-01-01T01:44:09.919Z,3.08
2018-01-01T01:46:38.617Z,3.22
2018-01-01T01:49:08.091Z,2.90
2018-01-01T01:51:36.788Z,5.25
2018-01-01T01:54:05.469Z,3.33
2018-01-01T01:56:34.172Z,3.87
2018-01-01T01:59:02.839Z,3.65
2018-01-01T02:01:31.746Z,2.65
2018-01-01T02:04:00.783Z,3.22
2018-01-01T02:06:29.478Z,3.12
2018-01-01T02:08:58.162Z,2.95
2018-01-01T02:11:29.101Z,3.97
2018-01-01T02:13:57.786Z,7.53
2018-01-01T02:16:26.503Z,3.37
2018-01-01T02:18:55.192Z,5.45
2018-01-01T02:21:24.660Z,3.78
2018-01-01T02:23:53.434Z,5.00
2018-01-01T02:26:22.110Z,4.50
2018-01-01T02:28:50.802Z,7.45
2018-01-01T02:31:19.546Z,8.70
2018-01-01T02:33:49.016Z,10.38
2018-01-01T02:36:17.701Z,8.68
2018-01-01T02:38:46.626Z,9.63
2018-01-01T02:41:15.309Z,8.15
2018-01-01T02:43:44.742Z,7.70
2018-01-01T02:46:13.418Z,8.90
2018-01-01T02:48:42.141Z,7.50
2018-01-01T02:51:11.069Z,8.65
2018-01-01T02:53:39.804Z,10.27
2018-01-01T02:56:08.497Z,5.40
2018-01-01T02:58:37.185Z,3.80
2018-01-01T03:01:05.865Z,5.60
2018-01-01T03:03:34.612Z,6.82
2018-01-01T03:06:03.288Z,4.35
2018-01-01T03:08:31.998Z,4.45
2018-01-01T03:11:01.655Z,5.97
2018-01-01T03:13:30.359Z,3.17
2018-01-01T03:15:59.119Z,4.75
2018-01-01T03:18:27.800Z,4.07
2018-01-01T03:20:56.494Z,4.62
2018-01-01T03:23:25.213Z,9.55
2018-01-01T03:25:53.896Z,10.30
2018-01-01T03:28:22.602Z,8.77
2018-01-01T03:30:51.318Z,8.90
2018-01-01T03:33:19.987Z,9.15
2018-01-01T03:35:49.460Z,8.80
2018-01-01T03:38:18.165Z,9.98
2018-01-01T03:40:46.844Z,10.10
2018-01-01T03:43:15.543Z,8.32
2018-01-01T03:45:44.269Z,8.80
2018-01-01T03:48:12.942Z,9.35
2018-01-01T03:50:42.382Z,11.00
2018-01-01T03:53:11.095Z,11.02
2018-01-01T03:55:39.780Z,12.48
2018-01-01T03:58:08.754Z,9.63
2018-01-01T04:00:37.476Z,10.00
2018-01-01T04:03:06.156Z,9.70
2018-01-01T04:05:34.847Z,8.55
2018-01-01T04:08:03.757Z,9.85
2018-01-01T04:10:32.461Z,10.73
2018-01-01T04:13:01.418Z,11.52
2018-01-01T04:15:30.127Z,11.23
2018-01-01T04:17:59.594Z,8.95
2018-01-01T04:20:28.490Z,9.00
2018-01-01T04:22:57.193Z,6.75
2018-01-01T04:25:25.910Z,7.10
2018-01-01T04:27:54.578Z,8.13
2018-01-01T04:30:23.277Z,7.80
2018-01-01T04:32:52.780Z,9.70
2018-01-01T04:35:22.250Z,9.60
2018-01-01T04:37:50.936Z,7.10
2018-01-01T04:40:19.814Z,9.40
2018-01-01T04:42:48.507Z,9.15
2018-01-01T04:45:17.194Z,9.40
2018-01-01T04:47:46.126Z,8.25
2018-01-01T04:50:15.577Z,8.38
2018-01-01T04:52:44.482Z,11.15
2018-01-01T04:55:13.218Z,9.50
2018-01-01T04:57:42.654Z,8.43
2018-01-01T05:00:11.352Z,5.95
2018-01-01T05:02:40.251Z,7.65
2018-01-01T05:05:08.945Z,11.15
2018-01-01T05:07:37.590Z,8.07
2018-01-01T05:10:06.286Z,7.65
2018-01-01T05:12:34.954Z,9.63
2018-01-01T05:15:04.071Z,8.02
2018-01-01T05:17:32.772Z,8.48
2018-01-01T05:20:01.462Z,6.00
2018-01-01T05:22:30.146Z,7.95
2018-01-01T05:24:58.857Z,3.90
2018-01-01T05:27:27.541Z,5.55
2018-01-01T05:29:56.206Z,6.40
2018-01-01T05:32:24.916Z,3.60
2018-01-01T05:34:53.604Z,4.03
2018-01-01T05:37:22.297Z,6.80
2018-01-01T05:39:51.010Z,9.05
2018-01-01T05:42:20.459Z,8.18
2018-01-01T05:44:49.123Z,6.82
2018-01-01T05:47:17.863Z,8.85
2018-01-01T05:49:46.570Z,11.48
2018-01-01T05:52:16.031Z,15.90
2018-01-01T05:54:44.946Z,7.25
2018-01-01T05:57:13.631Z,7.30
2018-01-01T05:59:42.311Z,10.18
2018-01-01T06:02:11.036Z,9.05
2018-01-01T06:04:40.500Z,8.95
2018-01-01T06:07:09.208Z,6.97
2018-01-01T06:09:37.929Z,7.20
2018-01-01T06:12:06.666Z,9.02
2018-01-01T06:14:35.353Z,12.07
2018-01-01T06:17:04.071Z,10.27
2018-01-01T06:19:33.505Z,8.57
2018-01-01T06:22:02.404Z,8.27
2018-01-01T06:24:31.146Z,10.30
2018-01-01T06:27:00.113Z,8.73
2018-01-01T06:29:28.814Z,6.10
2018-01-01T06:31:57.587Z,6.90
2018-01-01T06:34:26.296Z,6.78
2018-01-01T06:36:54.974Z,8.68
2018-01-01T06:39:23.672Z,12.43
2018-01-01T06:41:52.383Z,7.25
2018-01-01T06:44:21.809Z,6.18
2018-01-01T06:46:50.508Z,6.55
2018-01-01T06:49:19.229Z,8.50
2018-01-01T06:51:47.914Z,7.43
2018-01-01T06:54:16.640Z,7.28
2018-01-01T06:56:46.096Z,6.03
2018-01-01T06:59:14.994Z,8.23
2018-01-01T07:01:43.908Z,8.07
2018-01-01T07:04:13.428Z,11.73
2018-01-01T07:06:42.931Z,7.12
2018-01-01T07:09:11.109Z,2.80
2018-01-01T07:11:39.806Z,6.07
2018-01-01T07:14:09.498Z,2.35
2018-01-01T07:16:38.199Z,5.35
2018-01-01T07:19:07.676Z,3.60
2018-01-01T07:21:36.387Z,3.05
2018-01-01T07:24:05.865Z,4.20
2018-01-01T07:26:34.599Z,1.98
2018-01-01T07:29:03.285Z,6.05
2018-01-01T07:31:31.985Z,3.65
2018-01-01T07:34:00.949Z,2.00
2018-01-01T07:36:30.456Z,2.35
2018-01-01T07:39:00.134Z,2.62
2018-01-01T07:41:28.851Z,3.53
2018-01-01T07:43:58.325Z,2.60
2018-01-01T07:46:27.047Z,6.93
2018-01-01T07:48:56.564Z,2.45
2018-01-01T07:51:25.263Z,2.62
2018-01-01T07:53:53.976Z,4.20
2018-01-01T07:56:22.695Z,2.97
2018-01-01T07:58:51.384Z,3.58
2018-01-01T08:01:20.095Z,2.08
2018-01-01T08:03:49.625Z,3.75
2018-01-01T08:06:18.325Z,1.55
2018-01-01T08:08:47.036Z,2.15
2018-01-01T08:11:15.820Z,1.77
2018-01-01T08:13:44.549Z,2.45
2018-01-01T08:16:14.238Z,2.05
2018-01-01T08:18:43.952Z,2.22
2018-01-01T08:21:13.435Z,2.75
2018-01-01T08:23:42.163Z,3.47
2018-01-01T08:26:10.917Z,2.65
2018-01-01T08:28:39.905Z,1.60
2018-01-01T08:31:08.868Z,2.03
2018-01-01T08:33:37.611Z,2.53
2018-01-01T08:36:05.986Z,6.50
2018-01-01T08:38:34.720Z,9.90
2018-01-01T08:41:03.682Z,9.85
2018-01-01T08:43:32.382Z,5.65
2018-01-01T08:46:01.127Z,3.35
2018-01-01T08:48:29.536Z,3.72
2018-01-01T08:50:59.017Z,4.57
2018-01-01T08:53:27.943Z,5.75
2018-01-01T08:55:57.633Z,5.62
2018-01-01T08:58:26.591Z,4.72
2018-01-01T09:00:56.276Z,6.93
2018-01-01T09:03:24.996Z,4.85
2018-01-01T09:05:53.743Z,4.82
2018-01-01T09:08:22.450Z,5.25
2018-01-01T09:10:51.144Z,5.97
2018-01-01T09:13:19.887Z,11.05
2018-01-01T09:15:49.579Z,6.55
2018-01-01T09:18:18.282Z,5.47
2018-01-01T09:20:47.771Z,6.30
2018-01-01T09:23:16.490Z,8.60
2018-01-01T09:25:45.961Z,6.00
2018-01-01T09:28:14.733Z,5.12
2018-01-01T09:30:43.215Z,5.87
2018-01-01T09:33:11.944Z,4.12
2018-01-01T09:35:41.416Z,4.72
2018-01-01T09:38:10.368Z,7.80
2018-01-01T09:40:39.064Z,5.95
2018-01-01T09:43:07.823Z,6.05
2018-01-01T09:45:37.326Z,7.65
2018-01-01T09:48:06.792Z,8.02
2018-01-01T09:50:35.522Z,12.32
2018-01-01T09:53:04.434Z,8.18
2018-01-01T09:55:33.144Z,4.85
2018-01-01T09:58:01.884Z,3.70
2018-01-01T10:00:31.414Z,5.07
2018-01-01T10:03:00.114Z,6.60
2018-01-01T10:05:28.847Z,6.45
2018-01-01T10:07:57.521Z,8.35
2018-01-01T10:10:26.482Z,5.95
2018-01-01T10:12:55.236Z,4.97
2018-01-01T10:15:24.943Z,9.35
2018-01-01T10:17:53.653Z,5.47
2018-01-01T10:20:22.385Z,3.78
2018-01-01T10:22:51.105Z,3.53
2018-01-01T10:25:20.602Z,4.07
2018-01-01T10:27:49.543Z,6.30
2018-01-01T10:30:18.265Z,7.72
2018-01-01T10:32:47.164Z,7.22
2018-01-01T10:35:16.158Z,7.25
2018-01-01T10:37:44.890Z,4.53
2018-01-01T10:40:13.574Z,4.32
2018-01-01T10:42:42.518Z,2.78
2018-01-01T10:45:11.436Z,5.30
2018-01-01T10:47:40.193Z,3.70
2018-01-01T10:50:09.120Z,5.15
2018-01-01T10:52:37.804Z,3.17
2018-01-01T10:55:06.514Z,6.85
2018-01-01T10:57:35.202Z,4.65
2018-01-01T11:00:03.621Z,10.23
2018-01-01T11:02:32.333Z,5.03
2018-01-01T11:05:00.994Z,7.40
2018-01-01T11:07:29.792Z,3.95
2018-01-01T11:09:58.500Z,6.40
2018-01-01T11:12:27.177Z,3.35
2018-01-01T11:14:55.871Z,3.62
2018-01-01T11:17:24.581Z,2.08
2018-01-01T11:19:54.086Z,3.67
2018-01-01T11:22:23.530Z,3.95
2018-01-01T11:24:52.481Z,3.92
2018-01-01T11:27:21.934Z,4.85
2018-01-01T11:29:50.394Z,3.78
2018-01-01T11:32:19.354Z,2.22
2018-01-01T11:34:48.845Z,1.75
2018-01-01T11:37:17.573Z,2.70
2018-01-01T11:39:46.251Z,2.55
2018-01-01T11:42:14.963Z,1.58
2018-01-01T11:44:43.694Z,2.47
2018-01-01T11:47:12.411Z,2.40
2018-01-01T11:49:42.102Z,3.37
2018-01-01T11:52:11.594Z,1.45
2018-01-01T11:54:40.306Z,1.50
2018-01-01T11:57:09.026Z,2.55
2018-01-01T11:59:37.783Z,1.85
2018-01-01T12:02:07.248Z,2.35
2018-01-01T12:04:35.927Z,2.40
2018-01-01T12:07:04.670Z,3.55
2018-01-01T12:09:34.151Z,2.90
2018-01-01T12:12:03.078Z,2.87
2018-01-01T12:14:32.012Z,5.03
2018-01-01T12:17:00.955Z,4.75
2018-01-01T12:19:30.663Z,3.15
2018-01-01T12:21:59.346Z,1.67
2018-01-01T12:24:28.803Z,2.97
2018-01-01T12:26:57.520Z,3.35
2018-01-01T12:29:26.229Z,1.95
2018-01-01T12:31:55.701Z,2.17
2018-01-01T12:34:25.182Z,1.45
2018-01-01T12:36:53.955Z,1.95
2018-01-01T12:39:22.891Z,1.12
2018-01-01T12:41:51.854Z,2.30
2018-01-01T12:44:21.606Z,3.53
2018-01-01T12:46:50.318Z,2.75
2018-01-01T12:49:19.012Z,2.60
2018-01-01T12:51:48.913Z,2.70
2018-01-01T12:54:18.368Z,2.78
2018-01-01T12:56:47.316Z,2.85
2018-01-01T12:59:17.044Z,4.35
2018-01-01T13:01:45.747Z,5.50
2018-01-01T13:04:14.430Z,2.92
2018-01-01T13:06:42.851Z,3.05
2018-01-01T13:09:11.575Z,6.40
2018-01-01T13:11:41.282Z,2.80
2018-01-01T13:14:10.805Z,2.55
2018-01-01T13:16:39.568Z,1.80
2018-01-01T13:19:08.263Z,2.53
2018-01-01T13:21:37.710Z,2.08
2018-01-01T13:24:06.497Z,1.95
2018-01-01T13:26:35.186Z,2.72
2018-01-01T13:29:04.092Z,2.92
2018-01-01T13:31:32.826Z,3.15
2018-01-01T13:34:01.528Z,1.30
2018-01-01T13:36:30.353Z,1.35
2018-01-01T13:38:59.086Z,1.00
2018-01-01T13:41:28.595Z,1.60
2018-01-01T13:43:58.072Z,1.30
2018-01-01T13:46:27.749Z,1.20
2018-01-01T13:48:56.835Z,2.90
2018-01-01T13:51:25.673Z,5.25
2018-01-01T13:53:54.418Z,3.87
2018-01-01T13:56:23.107Z,1.40
2018-01-01T13:58:51.825Z,1.67
2018-01-01T14:01:21.649Z,2.42
2018-01-01T14:03:50.328Z,1.20
2018-01-01T14:06:19.831Z,3.00
2018-01-01T14:08:48.548Z,1.70
2018-01-01T14:11:17.293Z,2.10
2018-01-01T14:13:46.260Z,1.33
2018-01-01T14:16:14.947Z,1.37
2018-01-01T14:18:43.658Z,4.40
2018-01-01T14:21:12.367Z,2.60
2018-01-01T14:23:41.064Z,1.77
2018-01-01T14:26:09.765Z,2.30
2018-01-01T14:28:39.222Z,1.20
2018-01-01T14:31:07.972Z,2.03
2018-01-01T14:33:37.448Z,2.62
2018-01-01T14:36:06.477Z,7.12
2018-01-01T14:38:35.275Z,5.87
2018-01-01T14:41:03.982Z,6.43
2018-01-01T14:43:32.724Z,4.70
2018-01-01T14:46:02.372Z,6.10
2018-01-01T14:48:31.096Z,1.77
2018-01-01T14:50:59.893Z,1.80
2018-01-01T14:53:28.575Z,1.77
2018-01-01T14:55:57.265Z,3.00
2018-01-01T14:58:25.941Z,3.03
2018-01-01T15:00:54.836Z,4.62
2018-01-01T15:03:23.643Z,10.57
2018-01-01T15:05:52.318Z,4.78
2018-01-01T15:08:21.017Z,2.80
2018-01-01T15:10:49.771Z,2.97
2018-01-01T15:13:18.467Z,3.22
2018-01-01T15:15:47.154Z,2.92
2018-01-01T15:18:15.960Z,3.12
2018-01-01T15:20:44.697Z,2.35
2018-01-01T15:23:13.374Z,2.95
2018-01-01T15:25:42.200Z,4.18
2018-01-01T15:28:10.804Z,5.07
2018-01-01T15:30:39.515Z,3.90
2018-01-01T15:33:08.984Z,5.15
2018-01-01T15:35:37.670Z,6.50
2018-01-01T15:38:06.367Z,13.52
2018-01-01T15:40:35.310Z,16.30
2018-01-01T15:43:04.250Z,21.77
2018-01-01T15:45:33.252Z,12.27
2018-01-01T15:48:01.982Z,7.30
2018-01-01T15:50:30.665Z,9.95
2018-01-01T15:52:59.348Z,11.90
2018-01-01T15:55:28.095Z,9.38
2018-01-01T15:57:56.834Z,14.43
2018-01-01T16:00:25.668Z,12.90
2018-01-01T16:02:54.424Z,6.37
2018-01-01T16:05:23.112Z,7.72
2018-01-01T16:07:52.395Z,7.30
2018-01-01T16:10:22.062Z,8.77
2018-01-01T16:12:51.090Z,9.75
2018-01-01T16:15:19.945Z,6.35
2018-01-01T16:17:48.716Z,7.80
2018-01-01T16:20:17.370Z,10.43
2018-01-01T16:22:46.020Z,16.62
2018-01-01T16:25:14.690Z,12.27
2018-01-01T16:27:43.441Z,12.75
2018-01-01T16:30:12.225Z,12.90
2018-01-01T16:32:40.932Z,8.98
2018-01-01T16:35:09.612Z,16.37
2018-01-01T16:37:38.289Z,19.42
2018-01-01T16:40:07.021Z,25.25
2018-01-01T16:42:36.013Z,21.52
2018-01-01T16:45:04.677Z,20.62
2018-01-01T16:47:33.477Z,10.40
2018-01-01T16:50:02.182Z,9.10
2018-01-01T16:52:30.831Z,6.85
2018-01-01T16:54:59.497Z,6.40
2018-01-01T16:57:28.288Z,6.47
2018-01-01T16:59:57.879Z,7.00
2018-01-01T17:02:27.463Z,9.02
2018-01-01T17:04:57.038Z,8.35
2018-01-01T17:07:25.672Z,6.80
2018-01-01T17:09:54.304Z,6.25
2018-01-01T17:12:23.985Z,6.80
2018-01-01T17:14:54.440Z,7.62
2018-01-01T17:17:23.076Z,9.00
2018-01-01T17:19:51.712Z,6.65
2018-01-01T17:22:20.361Z,6.50
2018-01-01T17:24:49.847Z,11.18
2018-01-01T17:27:18.521Z,6.95
2018-01-01T17:29:46.993Z,8.85
2018-01-01T17:32:15.528Z,11.15
2018-01-01T17:34:44.769Z,12.05
2018-01-01T17:37:13.219Z,4.70
2018-01-01T17:39:41.704Z,7.22
2018-01-01T17:42:10.933Z,7.07
2018-01-01T17:44:39.393Z,11.55
2018-01-01T17:47:07.893Z,9.80
2018-01-01T17:49:36.351Z,10.60
2018-01-01T17:52:04.808Z,10.40
2018-01-01T17:54:34.075Z,10.93
2018-01-01T17:57:02.608Z,7.57
2018-01-01T17:59:31.860Z,14.15
2018-01-01T18:02:00.390Z,9.75
2018-01-01T18:04:28.880Z,14.73
2018-01-01T18:06:57.521Z,9.10
2018-01-01T18:09:26.370Z,10.20
2018-01-01T18:11:55.052Z,8.07
2018-01-01T18:14:23.689Z,11.95
2018-01-01T18:16:53.301Z,8.55
2018-01-01T18:19:22.031Z,9.52
2018-01-01T18:21:50.678Z,10.05
2018-01-01T18:24:19.340Z,10.35
2018-01-01T18:26:48.041Z,7.05
2018-01-01T18:29:16.877Z,8.25
2018-01-01T18:31:45.600Z,9.10
2018-01-01T18:34:14.314Z,8.13
2018-01-01T18:36:42.991Z,7.10
2018-01-01T18:39:11.656Z,7.15
2018-01-01T18:41:40.365Z,8.38
2018-01-01T18:44:09.033Z,10.23
2018-01-01T18:46:38.437Z,14.27
2018-01-01T18:49:07.093Z,12.10
2018-01-01T18:51:36.073Z,9.10
2018-01-01T18:54:04.781Z,13.62
2018-01-01T18:56:37.072Z,11.70
2018-01-01T18:59:06.549Z,10.23
2018-01-01T19:01:36.290Z,8.75
2018-01-01T19:04:05.021Z,10.50
2018-01-01T19:06:33.824Z,9.20
2018-01-01T19:09:03.108Z,11.43
2018-01-01T19:11:31.829Z,10.23
2018-01-01T19:14:00.582Z,13.32
2018-01-01T19:16:29.288Z,11.23
2018-01-01T19:18:58.763Z,12.37
2018-01-01T19:21:27.479Z,18.75
2018-01-01T19:23:56.954Z,13.07
2018-01-01T19:26:25.667Z,12.32
2018-01-01T19:28:55.164Z,12.00
2018-01-01T19:31:25.023Z,10.20
2018-01-01T19:33:53.781Z,14.40
2018-01-01T19:36:23.285Z,17.30
2018-01-01T19:38:52.772Z,13.40
2018-01-01T19:41:21.470Z,11.20
2018-01-01T19:43:50.240Z,9.90
2018-01-01T19:46:18.961Z,11.12
2018-01-01T19:48:48.420Z,12.10
2018-01-01T19:51:17.168Z,17.62
2018-01-01T19:53:45.892Z,12.15
2018-01-01T19:56:14.597Z,12.50
2018-01-01T19:58:43.323Z,12.90
2018-01-01T20:01:12.804Z,19.08
2018-01-01T20:03:41.494Z,12.63
2018-01-01T20:06:10.203Z,9.43
2018-01-01T20:08:39.667Z,11.38
2018-01-01T20:11:08.392Z,7.95
2018-01-01T20:13:37.868Z,7.87
2018-01-01T20:16:06.597Z,15.65
2018-01-01T20:18:35.993Z,10.48
2018-01-01T20:21:05.561Z,10.70
2018-01-01T20:23:34.368Z,14.90
2018-01-01T20:26:03.131Z,12.40
2018-01-01T20:28:31.870Z,11.40
2018-01-01T20:31:01.018Z,14.30
2018-01-01T20:33:30.578Z,8.82
2018-01-01T20:36:00.519Z,9.68
2018-01-01T20:38:29.868Z,10.40
2018-01-01T20:40:59.634Z,11.38
2018-01-01T20:43:28.554Z,6.70
2018-01-01T20:45:57.296Z,2.65
2018-01-01T20:48:26.053Z,11.82
2018-01-01T20:50:54.793Z,13.52
2018-01-01T20:53:23.740Z,8.85
2018-01-01T20:55:52.439Z,8.18
2018-01-01T20:58:22.199Z,6.18
2018-01-01T21:00:50.901Z,8.88
2018-01-01T21:03:19.628Z,6.97
2018-01-01T21:05:49.170Z,5.68
2018-01-01T21:08:17.867Z,7.37
2018-01-01T21:10:46.594Z,9.20
2018-01-01T21:13:15.340Z,10.57
2018-01-01T21:15:44.259Z,5.85
2018-01-01T21:18:13.189Z,5.90
2018-01-01T21:20:42.698Z,8.05
2018-01-01T21:23:11.625Z,6.97
2018-01-01T21:25:40.341Z,13.57
2018-01-01T21:28:08.732Z,5.30
2018-01-01T21:30:37.452Z,8.68
2018-01-01T21:33:06.176Z,5.53
2018-01-01T21:35:35.132Z,11.55
2018-01-01T21:38:04.604Z,7.45
2018-01-01T21:40:33.292Z,5.05
2018-01-01T21:43:02.238Z,5.60
2018-01-01T21:45:30.944Z,6.10
2018-01-01T21:47:59.690Z,7.28
2018-01-01T21:50:29.219Z,5.03
2018-01-01T21:52:57.936Z,7.40
2018-01-01T21:55:26.690Z,4.60
2018-01-01T21:57:55.602Z,7.75
2018-01-01T22:00:24.315Z,6.37
2018-01-01T22:02:53.063Z,4.62
2018-01-01T22:05:22.115Z,4.47
2018-01-01T22:07:50.819Z,3.95
2018-01-01T22:10:19.612Z,3.60
2018-01-01T22:12:48.316Z,4.72
2018-01-01T22:15:17.092Z,4.85
2018-01-01T22:17:46.566Z,4.57
2018-01-01T22:20:15.286Z,6.22
2018-01-01T22:22:44.736Z,5.25
2018-01-01T22:25:13.499Z,6.55
2018-01-01T22:27:42.235Z,3.12
2018-01-01T22:30:10.945Z,3.60
2018-01-01T22:32:40.458Z,3.00
2018-01-01T22:35:09.937Z,2.72
2018-01-01T22:37:38.624Z,4.62
2018-01-01T22:40:07.343Z,3.30
2018-01-01T22:42:37.021Z,5.93
2018-01-01T22:45:05.732Z,3.97
2018-01-01T22:47:34.661Z,3.45
2018-01-01T22:50:03.393Z,3.62
2018-01-01T22:52:32.115Z,5.18
2018-01-01T22:55:01.067Z,4.82
2018-01-01T22:57:31.960Z,9.82
2018-01-01T23:00:01.741Z,4.28
2018-01-01T23:02:31.905Z,4.78
2018-01-01T23:05:01.074Z,4.82
2018-01-01T23:07:30.195Z,4.28
2018-01-01T23:09:59.333Z,4.62
2018-01-01T23:12:28.561Z,4.43
2018-01-01T23:14:57.904Z,4.55
2018-01-01T23:17:26.998Z,6.22
2018-01-01T23:19:56.160Z,4.32
2018-01-01T23:22:25.488Z,4.80
2018-01-01T23:24:54.286Z,6.50
2018-01-01T23:27:23.400Z,4.10
2018-01-01T23:29:52.675Z,3.47
2018-01-01T23:32:21.452Z,4.47
2018-01-01T23:34:50.125Z,5.10
2018-01-01T23:37:19.603Z,5.03
2018-01-01T23:39:48.290Z,5.15
2018-01-01T23:42:16.978Z,4.70
2018-01-01T23:44:45.700Z,4.78
2018-01-01T23:47:14.417Z,5.10
2018-01-01T23:49:43.172Z,5.10
2018-01-01T23:52:12.618Z,6.00
2018-01-01T23:54:41.307Z,5.97
2018-01-01T23:57:09.738Z,3.85
2018-01-01T23:59:39.204Z,3.97
